ADDS METAR Data INFO
IDs: Format: Raw Decoded Include TAF

Data at: 1214 UTC 19 Nov 2017

METAR for:KLHQ (Lancaster/Fairfield, OH, US)
Text:KLHQ 191153Z AUTO 28007KT 10SM OVC044 03/01 A2984 RMK AO2 SLP106 60000 70043 T00330011 10050 20033 53027
Temperature: 3.3°C ( 38°F)
Dewpoint: 1.1°C ( 34°F) [RH = 85%]
Pressure (altimeter):29.84 inches Hg (1010.6 mb) [Sea level pressure: 1010.6 mb]
Winds:from the W (280 degrees) at 8 MPH (7 knots; 3.6 m/s)
Visibility:10 or more sm (16+ km)
Ceiling:4400 feet AGL
Clouds: overcast cloud deck at 4400 feet AGL
QC Flag:automated observation with no human augmentation